sensor_id;sensor_type;location;lat;lon;timestamp;pressure;altitude;pressure_sealevel;temperature;humidity
61898;BME280;47850;50.274;18.908;2023-02-11T00:01:31;99704.17;;;-3.43;81.41
61898;BME280;47850;50.274;18.908;2023-02-11T00:04:00;99700.46;;;-3.45;81.71
61898;BME280;47850;50.274;18.908;2023-02-11T00:06:30;99700.63;;;-3.44;82.14
61898;BME280;47850;50.274;18.908;2023-02-11T00:08:59;99698.49;;;-3.44;82.16
61898;BME280;47850;50.274;18.908;2023-02-11T00:11:28;99692.20;;;-3.45;82.39
61898;BME280;47850;50.274;18.908;2023-02-11T00:14:01;99693.35;;;-3.46;82.42
61898;BME280;47850;50.274;18.908;2023-02-11T00:16:30;99693.95;;;-3.48;82.54
61898;BME280;47850;50.274;18.908;2023-02-11T00:19:00;99691.04;;;-3.49;82.48
61898;BME280;47850;50.274;18.908;2023-02-11T00:21:28;99694.38;;;-3.50;82.47
61898;BME280;47850;50.274;18.908;2023-02-11T00:23:58;99698.90;;;-3.52;82.38
61898;BME280;47850;50.274;18.908;2023-02-11T00:26:31;99692.98;;;-3.54;82.66
61898;BME280;47850;50.274;18.908;2023-02-11T00:29:00;99690.35;;;-3.55;83.09
61898;BME280;47850;50.274;18.908;2023-02-11T00:31:29;99683.13;;;-3.56;83.28
61898;BME280;47850;50.274;18.908;2023-02-11T00:33:56;99677.65;;;-3.57;83.63
61898;BME280;47850;50.274;18.908;2023-02-11T00:36:26;99676.11;;;-3.58;83.55
61898;BME280;47850;50.274;18.908;2023-02-11T00:38:56;99671.15;;;-3.59;83.41
61898;BME280;47850;50.274;18.908;2023-02-11T00:41:25;99670.59;;;-3.60;83.58
61898;BME280;47850;50.274;18.908;2023-02-11T00:43:53;99669.27;;;-3.63;83.78
61898;BME280;47850;50.274;18.908;2023-02-11T00:46:21;99668.75;;;-3.64;83.86
61898;BME280;47850;50.274;18.908;2023-02-11T00:48:49;99663.48;;;-3.66;84.00
61898;BME280;47850;50.274;18.908;2023-02-11T00:51:19;99655.23;;;-3.67;84.06
61898;BME280;47850;50.274;18.908;2023-02-11T00:53:47;99649.23;;;-3.67;84.26
61898;BME280;47850;50.274;18.908;2023-02-11T00:56:15;99644.06;;;-3.67;84.56
61898;BME280;47850;50.274;18.908;2023-02-11T00:58:43;99636.86;;;-3.66;84.65
61898;BME280;47850;50.274;18.908;2023-02-11T01:01:11;99621.44;;;-3.67;84.68
61898;BME280;47850;50.274;18.908;2023-02-11T01:03:40;99606.70;;;-3.67;84.90
61898;BME280;47850;50.274;18.908;2023-02-11T01:06:08;99595.51;;;-3.67;84.58
61898;BME280;47850;50.274;18.908;2023-02-11T01:08:37;99598.31;;;-3.70;84.48
61898;BME280;47850;50.274;18.908;2023-02-11T01:11:09;99600.77;;;-3.72;84.40
61898;BME280;47850;50.274;18.908;2023-02-11T01:13:38;99593.75;;;-3.75;84.66
61898;BME280;47850;50.274;18.908;2023-02-11T01:16:07;99584.60;;;-3.76;84.50
61898;BME280;47850;50.274;18.908;2023-02-11T01:18:36;99575.89;;;-3.78;84.75
61898;BME280;47850;50.274;18.908;2023-02-11T01:21:05;99569.61;;;-3.79;84.80
61898;BME280;47850;50.274;18.908;2023-02-11T01:23:32;99568.86;;;-3.79;84.92
61898;BME280;47850;50.274;18.908;2023-02-11T01:26:00;99572.37;;;-3.78;84.93
61898;BME280;47850;50.274;18.908;2023-02-11T01:28:29;99580.20;;;-3.77;85.03
61898;BME280;47850;50.274;18.908;2023-02-11T01:30:59;99586.02;;;-3.74;85.24
61898;BME280;47850;50.274;18.908;2023-02-11T01:33:28;99589.48;;;-3.72;84.87
61898;BME280;47850;50.274;18.908;2023-02-11T01:36:00;99579.00;;;-3.69;85.11
61898;BME280;47850;50.274;18.908;2023-02-11T01:38:29;99573.50;;;-3.66;85.10
61898;BME280;47850;50.274;18.908;2023-02-11T01:41:00;99570.77;;;-3.62;85.40
61898;BME280;47850;50.274;18.908;2023-02-11T01:43:32;99566.08;;;-3.59;85.07
61898;BME280;47850;50.274;18.908;2023-02-11T01:46:36;99569.76;;;-3.57;85.09
61898;BME280;47850;50.274;18.908;2023-02-11T01:49:00;99566.45;;;-3.55;84.85
61898;BME280;47850;50.274;18.908;2023-02-11T01:51:39;99558.54;;;-3.53;85.04
61898;BME280;47850;50.274;18.908;2023-02-11T01:54:11;99560.30;;;-3.50;85.39
61898;BME280;47850;50.274;18.908;2023-02-11T01:57:01;99559.26;;;-3.47;85.35
61898;BME280;47850;50.274;18.908;2023-02-11T02:02:51;99559.21;;;-3.40;85.01
61898;BME280;47850;50.274;18.908;2023-02-11T02:08:20;99554.41;;;-3.35;85.07
61898;BME280;47850;50.274;18.908;2023-02-11T02:10:51;99544.20;;;-3.33;84.80
61898;BME280;47850;50.274;18.908;2023-02-11T02:13:23;99540.23;;;-3.31;84.98
61898;BME280;47850;50.274;18.908;2023-02-11T02:15:53;99533.31;;;-3.30;84.93
61898;BME280;47850;50.274;18.908;2023-02-11T02:21:26;99519.69;;;-3.24;84.70
61898;BME280;47850;50.274;18.908;2023-02-11T02:27:41;99497.55;;;-3.17;84.15
61898;BME280;47850;50.274;18.908;2023-02-11T02:33:21;99484.40;;;-3.12;83.95
61898;BME280;47850;50.274;18.908;2023-02-11T02:39:22;99477.34;;;-3.04;83.84
61898;BME280;47850;50.274;18.908;2023-02-11T02:41:53;99479.70;;;-2.97;83.53
61898;BME280;47850;50.274;18.908;2023-02-11T02:44:23;99478.47;;;-2.92;83.41
61898;BME280;47850;50.274;18.908;2023-02-11T02:46:51;99460.20;;;-2.88;83.30
61898;BME280;47850;50.274;18.908;2023-02-11T02:49:19;99453.52;;;-2.84;83.15
61898;BME280;47850;50.274;18.908;2023-02-11T03:08:20;99432.34;;;-2.48;80.62
61898;BME280;47850;50.274;18.908;2023-02-11T03:10:52;99433.58;;;-2.45;80.20
61898;BME280;47850;50.274;18.908;2023-02-11T03:13:25;99434.94;;;-2.44;79.91
61898;BME280;47850;50.274;18.908;2023-02-11T03:15:56;99437.48;;;-2.43;79.71
61898;BME280;47850;50.274;18.908;2023-02-11T03:18:28;99432.45;;;-2.43;79.43
61898;BME280;47850;50.274;18.908;2023-02-11T03:20:59;99436.70;;;-2.42;79.20
61898;BME280;47850;50.274;18.908;2023-02-11T03:24:05;99438.55;;;-2.43;79.19
61898;BME280;47850;50.274;18.908;2023-02-11T03:26:35;99435.88;;;-2.44;79.15
61898;BME280;47850;50.274;18.908;2023-02-11T03:29:34;99434.64;;;-2.47;78.69
61898;BME280;47850;50.274;18.908;2023-02-11T03:32:24;99431.52;;;-2.48;78.87
61898;BME280;47850;50.274;18.908;2023-02-11T03:34:59;99424.72;;;-2.50;78.61
61898;BME280;47850;50.274;18.908;2023-02-11T03:37:47;99425.21;;;-2.51;78.71
61898;BME280;47850;50.274;18.908;2023-02-11T03:40:30;99420.04;;;-2.52;78.70
61898;BME280;47850;50.274;18.908;2023-02-11T03:43:04;99413.46;;;-2.53;78.72
61898;BME280;47850;50.274;18.908;2023-02-11T03:45:35;99405.41;;;-2.54;78.78
61898;BME280;47850;50.274;18.908;2023-02-11T03:48:14;99398.83;;;-2.56;78.73
61898;BME280;47850;50.274;18.908;2023-02-11T03:50:44;99399.56;;;-2.56;78.74
61898;BME280;47850;50.274;18.908;2023-02-11T03:53:14;99391.05;;;-2.57;78.86
61898;BME280;47850;50.274;18.908;2023-02-11T03:55:43;99382.52;;;-2.57;78.73
61898;BME280;47850;50.274;18.908;2023-02-11T03:58:12;99368.80;;;-2.58;78.71
61898;BME280;47850;50.274;18.908;2023-02-11T04:00:41;99363.38;;;-2.59;78.83
61898;BME280;47850;50.274;18.908;2023-02-11T04:03:10;99356.56;;;-2.58;78.58
61898;BME280;47850;50.274;18.908;2023-02-11T04:05:39;99353.34;;;-2.59;78.59
61898;BME280;47850;50.274;18.908;2023-02-11T04:08:07;99348.73;;;-2.60;78.58
61898;BME280;47850;50.274;18.908;2023-02-11T04:10:35;99347.71;;;-2.60;78.74
61898;BME280;47850;50.274;18.908;2023-02-11T04:13:03;99338.80;;;-2.60;78.67
61898;BME280;47850;50.274;18.908;2023-02-11T04:15:31;99334.06;;;-2.59;78.79
61898;BME280;47850;50.274;18.908;2023-02-11T04:17:59;99329.72;;;-2.59;78.54
61898;BME280;47850;50.274;18.908;2023-02-11T04:20:28;99323.30;;;-2.57;78.59
61898;BME280;47850;50.274;18.908;2023-02-11T04:22:56;99322.44;;;-2.56;78.64
61898;BME280;47850;50.274;18.908;2023-02-11T04:25:24;99321.83;;;-2.55;78.48
61898;BME280;47850;50.274;18.908;2023-02-11T04:27:52;99314.44;;;-2.54;78.69
61898;BME280;47850;50.274;18.908;2023-02-11T04:30:20;99312.66;;;-2.55;78.78
61898;BME280;47850;50.274;18.908;2023-02-11T04:32:48;99314.23;;;-2.54;78.78
61898;BME280;47850;50.274;18.908;2023-02-11T04:35:16;99311.77;;;-2.54;78.81
61898;BME280;47850;50.274;18.908;2023-02-11T04:37:44;99314.56;;;-2.54;78.86
61898;BME280;47850;50.274;18.908;2023-02-11T04:40:11;99320.56;;;-2.54;78.98
61898;BME280;47850;50.274;18.908;2023-02-11T04:42:39;99325.77;;;-2.53;78.86
61898;BME280;47850;50.274;18.908;2023-02-11T04:45:07;99328.20;;;-2.52;78.99
61898;BME280;47850;50.274;18.908;2023-02-11T04:47:35;99328.00;;;-2.51;78.96
61898;BME280;47850;50.274;18.908;2023-02-11T04:50:04;99334.68;;;-2.49;78.86
61898;BME280;47850;50.274;18.908;2023-02-11T04:52:32;99327.55;;;-2.47;78.96
61898;BME280;47850;50.274;18.908;2023-02-11T04:55:00;99316.58;;;-2.47;79.08
61898;BME280;47850;50.274;18.908;2023-02-11T04:57:28;99320.44;;;-2.45;79.14
61898;BME280;47850;50.274;18.908;2023-02-11T04:59:56;99316.09;;;-2.44;79.09
61898;BME280;47850;50.274;18.908;2023-02-11T05:02:24;99323.72;;;-2.43;79.09
61898;BME280;47850;50.274;18.908;2023-02-11T05:04:51;99318.17;;;-2.41;79.16
61898;BME280;47850;50.274;18.908;2023-02-11T05:07:19;99317.30;;;-2.40;79.36
61898;BME280;47850;50.274;18.908;2023-02-11T05:09:47;99315.01;;;-2.38;79.46
61898;BME280;47850;50.274;18.908;2023-02-11T05:12:15;99311.91;;;-2.37;79.49
61898;BME280;47850;50.274;18.908;2023-02-11T05:14:43;99311.99;;;-2.35;79.52
61898;BME280;47850;50.274;18.908;2023-02-11T05:17:10;99301.85;;;-2.34;79.75
61898;BME280;47850;50.274;18.908;2023-02-11T05:19:38;99299.41;;;-2.33;79.78
61898;BME280;47850;50.274;18.908;2023-02-11T05:22:06;99301.77;;;-2.32;79.83
61898;BME280;47850;50.274;18.908;2023-02-11T05:24:34;99305.71;;;-2.30;79.90
61898;BME280;47850;50.274;18.908;2023-02-11T05:27:02;99312.56;;;-2.29;80.03
61898;BME280;47850;50.274;18.908;2023-02-11T05:29:29;99317.34;;;-2.26;79.96
61898;BME280;47850;50.274;18.908;2023-02-11T05:31:58;99326.17;;;-2.24;80.00
61898;BME280;47850;50.274;18.908;2023-02-11T05:34:26;99323.58;;;-2.21;79.88
61898;BME280;47850;50.274;18.908;2023-02-11T05:36:54;99319.34;;;-2.18;79.60
61898;BME280;47850;50.274;18.908;2023-02-11T05:39:22;99319.14;;;-2.16;79.86
61898;BME280;47850;50.274;18.908;2023-02-11T05:41:50;99322.30;;;-2.14;79.82
61898;BME280;47850;50.274;18.908;2023-02-11T05:44:18;99318.80;;;-2.11;79.67
61898;BME280;47850;50.274;18.908;2023-02-11T05:46:46;99317.27;;;-2.09;79.71
61898;BME280;47850;50.274;18.908;2023-02-11T05:49:15;99314.05;;;-2.08;79.95
61898;BME280;47850;50.274;18.908;2023-02-11T05:51:43;99307.98;;;-2.06;79.79
61898;BME280;47850;50.274;18.908;2023-02-11T05:54:11;99291.53;;;-2.06;79.80
61898;BME280;47850;50.274;18.908;2023-02-11T05:56:38;99274.54;;;-2.05;79.77
61898;BME280;47850;50.274;18.908;2023-02-11T05:59:06;99278.86;;;-2.06;79.62
61898;BME280;47850;50.274;18.908;2023-02-11T06:01:34;99283.02;;;-2.06;79.71
61898;BME280;47850;50.274;18.908;2023-02-11T06:04:02;99266.56;;;-2.07;79.92
61898;BME280;47850;50.274;18.908;2023-02-11T06:06:30;99265.77;;;-2.08;79.94
61898;BME280;47850;50.274;18.908;2023-02-11T06:08:58;99274.70;;;-2.08;79.77
61898;BME280;47850;50.274;18.908;2023-02-11T06:11:26;99274.20;;;-2.09;79.80
61898;BME280;47850;50.274;18.908;2023-02-11T06:13:53;99275.11;;;-2.09;79.91
61898;BME280;47850;50.274;18.908;2023-02-11T06:16:21;99278.94;;;-2.07;79.88
61898;BME280;47850;50.274;18.908;2023-02-11T06:18:49;99276.14;;;-2.06;79.96
61898;BME280;47850;50.274;18.908;2023-02-11T06:21:17;99264.88;;;-2.06;79.93
61898;BME280;47850;50.274;18.908;2023-02-11T06:23:45;99266.56;;;-2.06;80.03
61898;BME280;47850;50.274;18.908;2023-02-11T06:26:18;99262.16;;;-2.05;79.77
61898;BME280;47850;50.274;18.908;2023-02-11T06:28:46;99265.08;;;-2.04;79.99
61898;BME280;47850;50.274;18.908;2023-02-11T06:31:14;99262.61;;;-2.03;79.86
61898;BME280;47850;50.274;18.908;2023-02-11T06:33:42;99258.78;;;-2.02;79.80
61898;BME280;47850;50.274;18.908;2023-02-11T06:36:16;99253.86;;;-2.03;79.89
61898;BME280;47850;50.274;18.908;2023-02-11T06:38:45;99250.80;;;-2.03;80.05
61898;BME280;47850;50.274;18.908;2023-02-11T06:41:15;99254.25;;;-2.02;79.93
61898;BME280;47850;50.274;18.908;2023-02-11T06:43:43;99250.27;;;-2.01;79.89
61898;BME280;47850;50.274;18.908;2023-02-11T06:46:11;99256.20;;;-1.99;79.98
61898;BME280;47850;50.274;18.908;2023-02-11T06:48:40;99257.24;;;-1.98;79.95
61898;BME280;47850;50.274;18.908;2023-02-11T06:51:09;99261.52;;;-1.96;79.81
61898;BME280;47850;50.274;18.908;2023-02-11T06:53:40;99264.06;;;-1.94;79.81
61898;BME280;47850;50.274;18.908;2023-02-11T06:56:11;99265.83;;;-1.91;79.64
61898;BME280;47850;50.274;18.908;2023-02-11T06:58:40;99269.81;;;-1.89;79.63
61898;BME280;47850;50.274;18.908;2023-02-11T07:01:11;99267.69;;;-1.87;79.61
61898;BME280;47850;50.274;18.908;2023-02-11T07:03:41;99263.58;;;-1.85;79.59
61898;BME280;47850;50.274;18.908;2023-02-11T07:06:15;99259.21;;;-1.84;79.47
61898;BME280;47850;50.274;18.908;2023-02-11T07:08:44;99251.77;;;-1.85;79.59
61898;BME280;47850;50.274;18.908;2023-02-11T07:11:26;99248.77;;;-1.85;79.57
61898;BME280;47850;50.274;18.908;2023-02-11T07:13:59;99243.96;;;-1.86;79.84
61898;BME280;47850;50.274;18.908;2023-02-11T07:16:27;99241.25;;;-1.87;79.72
61898;BME280;47850;50.274;18.908;2023-02-11T07:18:54;99248.88;;;-1.88;79.65
61898;BME280;47850;50.274;18.908;2023-02-11T07:21:23;99250.36;;;-1.89;79.97
61898;BME280;47850;50.274;18.908;2023-02-11T07:23:51;99253.65;;;-1.89;79.91
61898;BME280;47850;50.274;18.908;2023-02-11T07:26:21;99254.63;;;-1.89;79.93
61898;BME280;47850;50.274;18.908;2023-02-11T07:28:55;99248.84;;;-1.85;80.06
61898;BME280;47850;50.274;18.908;2023-02-11T07:31:25;99248.34;;;-1.81;79.99
61898;BME280;47850;50.274;18.908;2023-02-11T07:33:56;99248.37;;;-1.76;80.00
61898;BME280;47850;50.274;18.908;2023-02-11T07:36:27;99240.66;;;-1.72;79.66
61898;BME280;47850;50.274;18.908;2023-02-11T07:38:56;99236.89;;;-1.67;79.58
61898;BME280;47850;50.274;18.908;2023-02-11T07:41:26;99226.61;;;-1.58;79.60
61898;BME280;47850;50.274;18.908;2023-02-11T07:43:54;99225.11;;;-1.49;79.17
61898;BME280;47850;50.274;18.908;2023-02-11T07:46:25;99222.69;;;-1.40;79.12
61898;BME280;47850;50.274;18.908;2023-02-11T07:48:54;99223.21;;;-1.29;79.04
61898;BME280;47850;50.274;18.908;2023-02-11T07:51:27;99220.52;;;-1.20;78.47
61898;BME280;47850;50.274;18.908;2023-02-11T07:53:57;99213.79;;;-1.10;78.05
61898;BME280;47850;50.274;18.908;2023-02-11T07:56:26;99217.55;;;-1.00;77.95
61898;BME280;47850;50.274;18.908;2023-02-11T07:59:00;99214.66;;;-0.91;77.48
61898;BME280;47850;50.274;18.908;2023-02-11T08:01:29;99215.63;;;-0.81;76.79
61898;BME280;47850;50.274;18.908;2023-02-11T08:03:58;99214.44;;;-0.74;76.61
61898;BME280;47850;50.274;18.908;2023-02-11T08:06:29;99220.21;;;-0.68;76.37
61898;BME280;47850;50.274;18.908;2023-02-11T08:08:57;99216.27;;;-0.60;76.38
61898;BME280;47850;50.274;18.908;2023-02-11T08:11:30;99211.81;;;-0.52;75.91
61898;BME280;47850;50.274;18.908;2023-02-11T08:13:57;99210.61;;;-0.42;75.78
61898;BME280;47850;50.274;18.908;2023-02-11T08:16:28;99205.48;;;-0.33;75.72
61898;BME280;47850;50.274;18.908;2023-02-11T08:18:59;99212.67;;;-0.27;75.04
61898;BME280;47850;50.274;18.908;2023-02-11T08:21:27;99213.64;;;-0.24;74.71
61898;BME280;47850;50.274;18.908;2023-02-11T08:23:55;99221.33;;;-0.19;74.98
61898;BME280;47850;50.274;18.908;2023-02-11T08:26:26;99222.46;;;-0.13;74.81
61898;BME280;47850;50.274;18.908;2023-02-11T08:28:56;99230.54;;;-0.08;74.42
61898;BME280;47850;50.274;18.908;2023-02-11T08:31:30;99227.60;;;-0.02;74.44
61898;BME280;47850;50.274;18.908;2023-02-11T08:33:58;99225.67;;;0.03;73.83
61898;BME280;47850;50.274;18.908;2023-02-11T08:36:29;99226.61;;;0.07;73.82
61898;BME280;47850;50.274;18.908;2023-02-11T08:38:59;99222.38;;;0.14;73.84
61898;BME280;47850;50.274;18.908;2023-02-11T08:41:31;99227.19;;;0.21;73.57
61898;BME280;47850;50.274;18.908;2023-02-11T08:43:59;99215.42;;;0.26;73.00
61898;BME280;47850;50.274;18.908;2023-02-11T08:46:27;99213.16;;;0.30;72.67
61898;BME280;47850;50.274;18.908;2023-02-11T08:48:56;99220.04;;;0.35;72.73
61898;BME280;47850;50.274;18.908;2023-02-11T08:51:25;99224.96;;;0.38;72.34
61898;BME280;47850;50.274;18.908;2023-02-11T08:53:55;99224.02;;;0.44;72.39
61898;BME280;47850;50.274;18.908;2023-02-11T08:56:23;99232.23;;;0.49;71.99
61898;BME280;47850;50.274;18.908;2023-02-11T08:58:52;99222.98;;;0.54;72.13
61898;BME280;47850;50.274;18.908;2023-02-11T09:01:24;99217.48;;;0.57;71.63
61898;BME280;47850;50.274;18.908;2023-02-11T09:03:53;99217.04;;;0.63;71.47
61898;BME280;47850;50.274;18.908;2023-02-11T09:06:21;99220.06;;;0.70;71.49
61898;BME280;47850;50.274;18.908;2023-02-11T09:08:53;99223.08;;;0.79;71.36
61898;BME280;47850;50.274;18.908;2023-02-11T09:11:27;99226.36;;;0.83;70.22
61898;BME280;47850;50.274;18.908;2023-02-11T09:13:56;99220.09;;;0.86;70.26
61898;BME280;47850;50.274;18.908;2023-02-11T09:16:32;99225.75;;;0.87;70.11
61898;BME280;47850;50.274;18.908;2023-02-11T09:19:01;99235.65;;;0.87;70.61
61898;BME280;47850;50.274;18.908;2023-02-11T09:21:30;99241.19;;;0.89;70.57
61898;BME280;47850;50.274;18.908;2023-02-11T09:23:58;99250.92;;;0.90;70.46
61898;BME280;47850;50.274;18.908;2023-02-11T09:26:28;99251.20;;;0.91;70.20
61898;BME280;47850;50.274;18.908;2023-02-11T09:28:57;99251.59;;;0.89;70.05
61898;BME280;47850;50.274;18.908;2023-02-11T09:31:27;99245.57;;;0.86;70.36
61898;BME280;47850;50.274;18.908;2023-02-11T09:33:58;99243.48;;;0.85;70.22
61898;BME280;47850;50.274;18.908;2023-02-11T09:36:29;99247.95;;;0.87;70.52
61898;BME280;47850;50.274;18.908;2023-02-11T09:39:00;99259.70;;;0.93;70.49
61898;BME280;47850;50.274;18.908;2023-02-11T09:44:07;99258.47;;;0.93;70.05
61898;BME280;47850;50.274;18.908;2023-02-11T09:46:40;99255.86;;;0.98;69.88
61898;BME280;47850;50.274;18.908;2023-02-11T09:49:17;99246.86;;;1.05;69.96
61898;BME280;47850;50.274;18.908;2023-02-11T09:51:57;99236.60;;;1.14;69.73
61898;BME280;47850;50.274;18.908;2023-02-11T09:54:55;99247.56;;;1.27;69.28
61898;BME280;47850;50.274;18.908;2023-02-11T09:57:31;99241.16;;;1.37;68.92
61898;BME280;47850;50.274;18.908;2023-02-11T10:00:01;99241.60;;;1.44;68.71
61898;BME280;47850;50.274;18.908;2023-02-11T10:08:40;99225.11;;;1.71;67.69
61898;BME280;47850;50.274;18.908;2023-02-11T10:22:59;99192.30;;;2.06;67.00
61898;BME280;47850;50.274;18.908;2023-02-11T10:25:42;99189.90;;;2.12;67.48
61898;BME280;47850;50.274;18.908;2023-02-11T10:28:17;99176.04;;;2.15;66.91
61898;BME280;47850;50.274;18.908;2023-02-11T10:33:33;99146.02;;;2.39;65.92
61898;BME280;47850;50.274;18.908;2023-02-11T10:36:03;99129.90;;;2.53;66.02
61898;BME280;47850;50.274;18.908;2023-02-11T10:38:31;99109.80;;;2.49;65.17
61898;BME280;47850;50.274;18.908;2023-02-11T10:41:00;99098.23;;;2.53;65.18
61898;BME280;47850;50.274;18.908;2023-02-11T10:43:29;99083.02;;;2.67;64.73
61898;BME280;47850;50.274;18.908;2023-02-11T10:45:59;99075.55;;;2.83;64.25
61898;BME280;47850;50.274;18.908;2023-02-11T10:48:45;99074.45;;;2.89;64.18
61898;BME280;47850;50.274;18.908;2023-02-11T10:53:45;99054.78;;;2.85;64.81
61898;BME280;47850;50.274;18.908;2023-02-11T10:56:22;99058.65;;;2.92;65.00
61898;BME280;47850;50.274;18.908;2023-02-11T10:59:06;99057.21;;;3.01;64.44
61898;BME280;47850;50.274;18.908;2023-02-11T11:01:52;99058.88;;;3.00;64.09
61898;BME280;47850;50.274;18.908;2023-02-11T11:07:20;99090.52;;;3.00;64.42
61898;BME280;47850;50.274;18.908;2023-02-11T11:12:36;99084.04;;;2.78;64.61
61898;BME280;47850;50.274;18.908;2023-02-11T11:17:37;99076.98;;;2.58;65.95
61898;BME280;47850;50.274;18.908;2023-02-11T11:23:16;99079.90;;;2.49;66.56
61898;BME280;47850;50.274;18.908;2023-02-11T11:25:59;99077.30;;;2.50;66.87
61898;BME280;47850;50.274;18.908;2023-02-11T11:28:28;99080.00;;;2.51;66.84
61898;BME280;47850;50.274;18.908;2023-02-11T11:30:58;99076.67;;;2.49;67.00
61898;BME280;47850;50.274;18.908;2023-02-11T11:33:33;99075.41;;;2.51;67.23
61898;BME280;47850;50.274;18.908;2023-02-11T11:36:08;99076.48;;;2.53;67.26
61898;BME280;47850;50.274;18.908;2023-02-11T11:38:43;99072.05;;;2.56;67.28
61898;BME280;47850;50.274;18.908;2023-02-11T11:41:20;99064.48;;;2.51;67.32
61898;BME280;47850;50.274;18.908;2023-02-11T11:44:03;99064.95;;;2.47;67.82
61898;BME280;47850;50.274;18.908;2023-02-11T11:46:34;99052.05;;;2.38;68.22
61898;BME280;47850;50.274;18.908;2023-02-11T11:49:20;99053.80;;;2.30;68.72
61898;BME280;47850;50.274;18.908;2023-02-11T11:52:17;99054.79;;;2.25;68.85
61898;BME280;47850;50.274;18.908;2023-02-11T11:54:54;99061.22;;;2.20;69.03
61898;BME280;47850;50.274;18.908;2023-02-11T11:57:26;99064.35;;;2.17;69.35
61898;BME280;47850;50.274;18.908;2023-02-11T11:59:56;99070.92;;;2.14;69.55
61898;BME280;47850;50.274;18.908;2023-02-11T12:02:52;99079.64;;;2.12;69.49
61898;BME280;47850;50.274;18.908;2023-02-11T12:05:31;99082.77;;;2.06;69.76
61898;BME280;47850;50.274;18.908;2023-02-11T12:19:46;99108.21;;;1.97;70.72
61898;BME280;47850;50.274;18.908;2023-02-11T12:25:06;99091.05;;;1.92;72.02
61898;BME280;47850;50.274;18.908;2023-02-11T12:31:27;99086.73;;;1.88;72.95
61898;BME280;47850;50.274;18.908;2023-02-11T12:36:41;99094.35;;;1.73;74.47
61898;BME280;47850;50.274;18.908;2023-02-11T12:42:13;99073.03;;;1.64;75.54
61898;BME280;47850;50.274;18.908;2023-02-11T12:50:26;99031.02;;;1.61;77.48
61898;BME280;47850;50.274;18.908;2023-02-11T12:55:45;98996.22;;;1.54;78.86
61898;BME280;47850;50.274;18.908;2023-02-11T12:58:22;98984.44;;;1.53;79.26
61898;BME280;47850;50.274;18.908;2023-02-11T13:00:59;98998.25;;;1.54;79.29
61898;BME280;47850;50.274;18.908;2023-02-11T13:03:40;98998.95;;;1.50;79.89
61898;BME280;47850;50.274;18.908;2023-02-11T13:06:21;98999.66;;;1.48;80.30
61898;BME280;47850;50.274;18.908;2023-02-11T13:09:32;99019.20;;;1.44;80.40
61898;BME280;47850;50.274;18.908;2023-02-11T13:12:02;99032.81;;;1.39;80.20
61898;BME280;47850;50.274;18.908;2023-02-11T13:14:51;99013.83;;;1.41;80.53
61898;BME280;47850;50.274;18.908;2023-02-11T13:17:30;99004.94;;;1.42;80.78
61898;BME280;47850;50.274;18.908;2023-02-11T13:20:12;99005.10;;;1.46;80.83
61898;BME280;47850;50.274;18.908;2023-02-11T13:22:58;99000.27;;;1.46;80.97
61898;BME280;47850;50.274;18.908;2023-02-11T13:25:29;99005.79;;;1.49;81.01
61898;BME280;47850;50.274;18.908;2023-02-11T13:28:22;99009.80;;;1.50;81.94
61898;BME280;47850;50.274;18.908;2023-02-11T13:30:52;99006.11;;;1.48;82.84
61898;BME280;47850;50.274;18.908;2023-02-11T13:33:35;98996.61;;;1.43;83.42
61898;BME280;47850;50.274;18.908;2023-02-11T13:38:35;98944.02;;;1.37;85.35
61898;BME280;47850;50.274;18.908;2023-02-11T13:41:34;98916.38;;;1.36;85.96
61898;BME280;47850;50.274;18.908;2023-02-11T13:46:58;98921.59;;;1.38;87.00
61898;BME280;47850;50.274;18.908;2023-02-11T13:52:04;98939.96;;;1.35;87.11
61898;BME280;47850;50.274;18.908;2023-02-11T13:54:37;98936.94;;;1.34;87.55
61898;BME280;47850;50.274;18.908;2023-02-11T13:59:54;98943.20;;;1.35;87.93
61898;BME280;47850;50.274;18.908;2023-02-11T14:02:26;98944.85;;;1.33;88.53
61898;BME280;47850;50.274;18.908;2023-02-11T14:11:01;98976.61;;;1.29;88.60
61898;BME280;47850;50.274;18.908;2023-02-11T14:13:30;98974.60;;;1.28;88.37
61898;BME280;47850;50.274;18.908;2023-02-11T14:16:12;98962.52;;;1.26;88.59
61898;BME280;47850;50.274;18.908;2023-02-11T14:23:49;98988.71;;;1.19;89.34
61898;BME280;47850;50.274;18.908;2023-02-11T14:29:12;98997.20;;;1.14;89.34
61898;BME280;47850;50.274;18.908;2023-02-11T14:31:47;98996.73;;;1.08;89.10
61898;BME280;47850;50.274;18.908;2023-02-11T14:42:17;98995.84;;;0.92;87.50
61898;BME280;47850;50.274;18.908;2023-02-11T14:44:49;98995.16;;;0.88;88.29
61898;BME280;47850;50.274;18.908;2023-02-11T14:47:23;99002.89;;;0.86;88.26
61898;BME280;47850;50.274;18.908;2023-02-11T14:49:52;99003.35;;;0.84;88.37
61898;BME280;47850;50.274;18.908;2023-02-11T14:52:27;98995.73;;;0.82;88.37
61898;BME280;47850;50.274;18.908;2023-02-11T14:57:31;98995.88;;;0.79;88.69
61898;BME280;47850;50.274;18.908;2023-02-11T15:00:17;98997.14;;;0.78;88.54
61898;BME280;47850;50.274;18.908;2023-02-11T15:02:46;98996.24;;;0.75;88.68
61898;BME280;47850;50.274;18.908;2023-02-11T15:05:21;99004.92;;;0.75;88.15
61898;BME280;47850;50.274;18.908;2023-02-11T15:07:55;99008.96;;;0.75;88.11
61898;BME280;47850;50.274;18.908;2023-02-11T15:12:55;99000.14;;;0.77;87.50
61898;BME280;47850;50.274;18.908;2023-02-11T15:15:25;99009.85;;;0.76;87.33
61898;BME280;47850;50.274;18.908;2023-02-11T15:17:55;99019.67;;;0.76;87.27
61898;BME280;47850;50.274;18.908;2023-02-11T15:20:27;99013.32;;;0.76;87.13
61898;BME280;47850;50.274;18.908;2023-02-11T15:22:58;99019.02;;;0.76;86.93
61898;BME280;47850;50.274;18.908;2023-02-11T15:25:28;99023.25;;;0.75;86.64
61898;BME280;47850;50.274;18.908;2023-02-11T15:27:57;99030.07;;;0.75;86.79
61898;BME280;47850;50.274;18.908;2023-02-11T15:30:28;99024.09;;;0.74;86.62
61898;BME280;47850;50.274;18.908;2023-02-11T15:33:00;99025.91;;;0.72;87.21
61898;BME280;47850;50.274;18.908;2023-02-11T15:35:35;99037.92;;;0.69;87.48
61898;BME280;47850;50.274;18.908;2023-02-11T15:38:04;99034.86;;;0.67;87.50
61898;BME280;47850;50.274;18.908;2023-02-11T15:40:34;99042.71;;;0.65;87.66
61898;BME280;47850;50.274;18.908;2023-02-11T15:43:05;99044.93;;;0.63;87.63